createdAt,value
2022-11-18T00:02:08.519Z,5.70
2022-11-18T00:04:35.403Z,5.60
2022-11-18T00:07:02.378Z,5.60
2022-11-18T00:09:29.370Z,5.50
2022-11-18T00:12:14.734Z,5.50
2022-11-18T00:14:41.712Z,5.40
2022-11-18T00:17:08.610Z,5.40
2022-11-18T00:19:38.147Z,5.30
2022-11-18T00:22:07.283Z,5.30
2022-11-18T00:24:34.209Z,5.30
2022-11-18T00:27:07.348Z,5.20
2022-11-18T00:29:34.284Z,5.20
2022-11-18T00:32:01.249Z,5.30
2022-11-18T00:34:28.136Z,5.20
2022-11-18T00:36:55.043Z,5.20
2022-11-18T00:39:22.951Z,5.10
2022-11-18T00:42:08.575Z,5.10
2022-11-18T00:44:35.963Z,5.10
2022-11-18T00:47:03.053Z,5.20
2022-11-18T00:49:30.141Z,5.20
2022-11-18T00:51:57.167Z,5.30
2022-11-18T00:54:24.114Z,5.20
2022-11-18T00:56:51.023Z,5.20
2022-11-18T00:59:18.283Z,5.20
2022-11-18T01:01:45.426Z,5.20
2022-11-18T01:04:12.555Z,5.10
2022-11-18T01:06:39.424Z,5.00
2022-11-18T01:09:06.405Z,5.00
2022-11-18T01:12:02.604Z,4.90
2022-11-18T01:14:29.589Z,4.90
2022-11-18T01:16:57.197Z,4.80
2022-11-18T01:19:25.159Z,4.90
2022-11-18T01:21:52.406Z,4.80
2022-11-18T01:24:19.277Z,4.90
2022-11-18T01:26:46.146Z,5.00
2022-11-18T01:29:13.109Z,4.80
2022-11-18T01:32:01.511Z,4.80
2022-11-18T01:34:29.312Z,4.80
2022-11-18T01:36:57.288Z,4.80
2022-11-18T01:39:24.463Z,4.70
2022-11-18T01:41:51.436Z,4.70
2022-11-18T01:44:55.976Z,4.70
2022-11-18T01:47:25.879Z,4.70
2022-11-18T01:49:53.444Z,4.70
2022-11-18T01:52:21.758Z,4.70
2022-11-18T01:54:55.016Z,4.70
2022-11-18T01:57:23.132Z,4.70
2022-11-18T01:59:56.564Z,4.60
2022-11-18T02:02:24.471Z,4.60
2022-11-18T02:04:55.081Z,4.60
2022-11-18T02:07:22.945Z,4.50
2022-11-18T02:09:50.855Z,4.60
2022-11-18T02:12:17.826Z,4.60
2022-11-18T02:14:46.707Z,4.60
2022-11-18T02:17:33.853Z,4.60
2022-11-18T02:20:13.088Z,4.60
2022-11-18T02:23:00.194Z,4.70
2022-11-18T02:25:55.047Z,4.70
2022-11-18T02:28:59.995Z,4.80
2022-11-18T02:31:41.425Z,4.80
2022-11-18T02:34:17.832Z,4.70
2022-11-18T02:37:03.517Z,4.70
2022-11-18T02:39:37.726Z,4.70
2022-11-18T02:42:09.329Z,4.70
2022-11-18T02:44:38.407Z,4.80
2022-11-18T02:47:08.741Z,4.80
2022-11-18T02:49:40.580Z,4.90
2022-11-18T02:52:10.354Z,4.90
2022-11-18T02:54:40.552Z,4.90
2022-11-18T02:57:08.718Z,4.90
2022-11-18T02:59:35.716Z,5.00
2022-11-18T03:02:04.197Z,5.00
2022-11-18T03:04:33.084Z,5.10
2022-11-18T03:07:16.932Z,5.20
2022-11-18T03:09:47.102Z,5.30
2022-11-18T03:12:32.173Z,5.40
2022-11-18T03:15:25.138Z,5.50
2022-11-18T03:18:18.541Z,5.60
2022-11-18T03:21:01.291Z,5.60
2022-11-18T03:24:07.626Z,5.70
2022-11-18T03:26:39.299Z,5.80
2022-11-18T03:29:15.370Z,5.70
2022-11-18T03:31:48.825Z,5.80
2022-11-18T03:34:27.464Z,5.80
2022-11-18T03:37:00.868Z,5.80
2022-11-18T03:39:32.707Z,5.80
2022-11-18T03:42:11.743Z,5.70
2022-11-18T03:44:43.012Z,5.70
2022-11-18T03:47:14.921Z,5.60
2022-11-18T03:49:53.676Z,5.60
2022-11-18T03:52:30.770Z,5.70
2022-11-18T03:55:02.292Z,5.70
2022-11-18T03:57:42.619Z,5.70
2022-11-18T04:00:16.273Z,5.70
2022-11-18T04:02:44.015Z,5.70
2022-11-18T04:05:13.510Z,5.70
2022-11-18T04:07:59.220Z,5.60
2022-11-18T04:10:49.715Z,5.70
2022-11-18T04:13:25.411Z,5.70
2022-11-18T04:15:54.463Z,5.70
2022-11-18T04:18:21.707Z,5.80
2022-11-18T04:20:48.602Z,5.80
2022-11-18T04:23:15.508Z,5.80
2022-11-18T04:25:42.340Z,5.90
2022-11-18T04:28:09.436Z,5.90
2022-11-18T04:30:36.404Z,5.90
2022-11-18T04:33:03.366Z,6.00
2022-11-18T04:35:30.225Z,6.00
2022-11-18T04:37:57.184Z,6.00
2022-11-18T04:40:24.051Z,6.00
2022-11-18T04:42:50.937Z,6.00
2022-11-18T04:45:17.807Z,6.10
2022-11-18T04:47:44.743Z,6.10
2022-11-18T04:50:11.660Z,6.10
2022-11-18T04:52:38.574Z,6.10
2022-11-18T04:55:05.754Z,6.10
2022-11-18T04:57:32.645Z,6.10
2022-11-18T04:59:59.527Z,6.00
2022-11-18T05:02:26.405Z,6.10
2022-11-18T05:04:53.333Z,6.10
2022-11-18T05:07:20.286Z,6.10
2022-11-18T05:09:47.140Z,6.10
2022-11-18T05:12:33.525Z,6.10
2022-11-18T05:15:01.258Z,6.10
2022-11-18T05:17:28.228Z,6.10
2022-11-18T05:19:55.205Z,6.00
2022-11-18T05:22:22.075Z,6.10
2022-11-18T05:24:49.399Z,6.10
2022-11-18T05:27:16.750Z,6.20
2022-11-18T05:29:44.011Z,6.20
2022-11-18T05:32:11.341Z,6.20
2022-11-18T05:34:39.277Z,6.20
2022-11-18T05:37:06.182Z,6.20
2022-11-18T05:39:33.840Z,6.20
2022-11-18T05:42:19.968Z,6.20
2022-11-18T05:44:46.913Z,6.20
2022-11-18T05:47:14.138Z,6.30
2022-11-18T05:49:41.078Z,6.30
2022-11-18T05:52:08.039Z,6.30
2022-11-18T05:54:34.993Z,6.30
2022-11-18T05:57:01.962Z,6.40
2022-11-18T05:59:29.015Z,6.40
2022-11-18T06:02:02.031Z,6.50
2022-11-18T06:04:49.256Z,6.50
2022-11-18T06:07:23.168Z,6.50
2022-11-18T06:09:55.014Z,6.50
2022-11-18T06:12:25.104Z,6.60
2022-11-18T06:14:57.147Z,6.60
2022-11-18T06:17:30.091Z,6.60
2022-11-18T06:19:57.967Z,6.60
2022-11-18T06:22:25.605Z,6.70
2022-11-18T06:24:52.525Z,6.60
2022-11-18T06:27:19.563Z,6.60
2022-11-18T06:29:46.420Z,6.70
2022-11-18T06:32:13.353Z,6.70
2022-11-18T06:34:41.998Z,6.70
2022-11-18T06:37:22.695Z,6.80
2022-11-18T06:39:49.662Z,6.80
2022-11-18T06:42:36.506Z,6.80
2022-11-18T06:45:05.055Z,6.80
2022-11-18T06:47:31.981Z,6.80
2022-11-18T06:49:58.899Z,6.80
2022-11-18T06:52:25.768Z,6.70
2022-11-18T06:54:52.647Z,6.70
2022-11-18T06:57:19.526Z,6.80
2022-11-18T06:59:46.440Z,6.80
2022-11-18T07:02:13.386Z,6.80
2022-11-18T07:04:41.078Z,6.80
2022-11-18T07:07:08.264Z,6.80
2022-11-18T07:09:36.078Z,6.80
2022-11-18T07:12:03.851Z,6.80
2022-11-18T07:14:31.373Z,6.80
2022-11-18T07:16:58.340Z,6.80
2022-11-18T07:19:25.297Z,6.80
2022-11-18T07:21:52.211Z,6.80
2022-11-18T07:24:19.117Z,6.80
2022-11-18T07:26:46.504Z,6.80
2022-11-18T07:29:13.536Z,6.90
2022-11-18T07:31:40.988Z,6.90
2022-11-18T07:34:08.358Z,6.90
2022-11-18T07:36:36.220Z,7.00
2022-11-18T07:39:05.370Z,6.90
2022-11-18T07:41:33.604Z,7.00
2022-11-18T07:44:02.423Z,7.10
2022-11-18T07:46:32.290Z,7.10
2022-11-18T07:49:01.490Z,7.10
2022-11-18T07:51:31.004Z,7.20
2022-11-18T07:53:58.266Z,7.20
2022-11-18T07:56:25.198Z,7.20
2022-11-18T07:58:56.191Z,7.20
2022-11-18T08:01:25.410Z,7.20
2022-11-18T08:03:52.428Z,7.30
2022-11-18T08:06:20.014Z,7.20
2022-11-18T08:08:47.675Z,7.30
2022-11-18T08:11:22.273Z,7.40
2022-11-18T08:13:51.689Z,7.30
2022-11-18T08:16:21.394Z,7.20
2022-11-18T08:18:48.650Z,7.30
2022-11-18T08:21:17.582Z,7.30
2022-11-18T08:23:53.053Z,7.30
2022-11-18T08:26:20.347Z,7.40
2022-11-18T08:28:47.431Z,7.50
2022-11-18T08:31:20.915Z,7.60
2022-11-18T08:33:48.417Z,7.70
2022-11-18T08:36:25.120Z,7.80
2022-11-18T08:38:52.197Z,7.90
2022-11-18T08:41:29.284Z,7.80
2022-11-18T08:43:56.257Z,7.90
2022-11-18T08:46:23.186Z,7.90
2022-11-18T08:48:50.078Z,7.90
2022-11-18T08:51:17.188Z,7.90
2022-11-18T08:53:44.844Z,7.80
2022-11-18T08:56:17.906Z,7.80
2022-11-18T08:58:44.890Z,7.80
2022-11-18T09:01:12.771Z,7.80
2022-11-18T09:03:40.295Z,7.70
2022-11-18T09:06:17.610Z,7.70
2022-11-18T09:08:45.197Z,7.70
2022-11-18T09:11:17.664Z,7.80
2022-11-18T09:14:20.801Z,7.80
2022-11-18T09:16:34.336Z,7.90
2022-11-18T09:19:18.244Z,7.90
2022-11-18T09:21:48.594Z,7.90
2022-11-18T09:24:16.175Z,7.90
2022-11-18T09:26:43.479Z,8.00
2022-11-18T09:29:11.744Z,8.00
2022-11-18T09:31:38.833Z,8.10
2022-11-18T09:34:05.938Z,8.10
2022-11-18T09:36:32.899Z,8.10
2022-11-18T09:38:59.906Z,8.10
2022-11-18T09:41:51.851Z,8.20
2022-11-18T09:44:49.320Z,8.30
2022-11-18T09:47:27.797Z,8.30
2022-11-18T09:49:58.280Z,8.40
2022-11-18T09:52:35.937Z,8.40
2022-11-18T09:55:12.499Z,8.50
2022-11-18T09:57:43.908Z,8.50
2022-11-18T10:00:24.447Z,8.60
2022-11-18T10:03:04.877Z,8.70
2022-11-18T10:05:55.388Z,8.80
2022-11-18T10:08:29.068Z,8.90
2022-11-18T10:11:08.199Z,9.00
2022-11-18T10:13:43.536Z,9.00
2022-11-18T10:16:35.361Z,9.00
2022-11-18T10:19:20.261Z,9.00
2022-11-18T10:22:25.032Z,9.10
2022-11-18T10:24:54.451Z,9.10
2022-11-18T10:27:22.159Z,9.20
2022-11-18T10:29:55.370Z,9.30
2022-11-18T10:32:22.251Z,9.20
2022-11-18T10:34:59.524Z,9.40
2022-11-18T10:38:06.210Z,9.50
2022-11-18T10:40:27.177Z,9.50
2022-11-18T10:42:54.533Z,9.40
2022-11-18T10:45:21.504Z,9.40
2022-11-18T10:48:07.030Z,9.30
2022-11-18T10:50:44.480Z,9.50
2022-11-18T10:53:30.405Z,9.50
2022-11-18T10:56:11.488Z,9.80
2022-11-18T10:58:43.444Z,10.00
2022-11-18T11:01:19.356Z,10.20
2022-11-18T11:04:15.779Z,10.30
2022-11-18T11:06:42.986Z,11.00
2022-11-18T11:09:15.692Z,11.40
2022-11-18T11:12:00.330Z,11.60
2022-11-18T11:14:48.258Z,11.90
2022-11-18T11:17:37.860Z,12.10
2022-11-18T11:20:21.415Z,12.70
2022-11-18T11:22:48.990Z,12.80
2022-11-18T11:25:26.269Z,12.80
2022-11-18T11:31:01.722Z,12.30
2022-11-18T11:33:43.222Z,12.40
2022-11-18T11:36:51.524Z,12.30
2022-11-18T11:39:26.950Z,12.00
2022-11-18T11:42:09.611Z,11.50
2022-11-18T11:44:55.371Z,11.20
2022-11-18T11:47:57.257Z,11.10
2022-11-18T11:51:05.090Z,11.10
2022-11-18T11:53:59.638Z,11.10
2022-11-18T11:56:29.607Z,10.90
2022-11-18T11:59:15.724Z,10.80
2022-11-18T12:01:59.807Z,10.60
2022-11-18T12:04:35.806Z,10.60
2022-11-18T12:07:06.092Z,10.70
2022-11-18T12:09:33.009Z,10.70
2022-11-18T12:12:35.281Z,10.70
2022-11-18T12:15:59.235Z,10.70
2022-11-18T12:18:47.860Z,10.70
2022-11-18T12:21:45.698Z,10.60
2022-11-18T12:24:30.775Z,10.60
2022-11-18T12:27:03.555Z,10.70
2022-11-18T12:29:50.779Z,10.70
2022-11-18T12:32:26.954Z,10.70
2022-11-18T12:34:56.981Z,10.70
2022-11-18T12:37:23.876Z,10.70
2022-11-18T12:39:57.989Z,10.60
2022-11-18T12:43:02.480Z,10.60
2022-11-18T12:45:42.060Z,10.50
2022-11-18T12:48:27.521Z,10.50
2022-11-18T12:51:01.048Z,10.60
2022-11-18T12:53:39.139Z,10.50
2022-11-18T12:56:12.080Z,10.60
2022-11-18T12:58:44.776Z,10.60
2022-11-18T13:01:14.251Z,10.60
2022-11-18T13:03:41.396Z,10.50
2022-11-18T13:06:23.885Z,10.40
2022-11-18T13:09:33.612Z,10.30
2022-11-18T13:12:15.789Z,10.30
2022-11-18T13:15:02.157Z,10.40
2022-11-18T13:17:48.917Z,10.50
2022-11-18T13:20:35.641Z,10.70
2022-11-18T13:23:33.234Z,10.70
2022-11-18T13:26:31.365Z,10.60
2022-11-18T13:29:22.603Z,10.50
2022-11-18T13:32:21.810Z,10.50
2022-11-18T13:34:56.074Z,10.30
2022-11-18T13:37:34.552Z,10.30
2022-11-18T13:40:01.988Z,10.20
2022-11-18T13:42:32.305Z,10.30
2022-11-18T13:45:01.550Z,10.20
2022-11-18T13:47:42.623Z,10.10
2022-11-18T13:50:40.420Z,10.10
2022-11-18T13:53:07.381Z,10.00
2022-11-18T13:55:54.529Z,9.90
2022-11-18T13:59:02.554Z,9.70
2022-11-18T14:01:26.517Z,9.50
2022-11-18T14:04:05.095Z,9.50
2022-11-18T14:06:40.605Z,9.40
2022-11-18T14:09:21.290Z,9.50
2022-11-18T14:12:02.074Z,9.40
2022-11-18T14:14:37.744Z,9.30
2022-11-18T14:17:15.272Z,9.30
2022-11-18T14:19:42.682Z,9.20
2022-11-18T14:22:34.964Z,9.20
2022-11-18T14:25:15.176Z,9.20
2022-11-18T14:27:43.841Z,9.20
2022-11-18T14:30:31.027Z,9.20
2022-11-18T14:33:29.090Z,9.10
2022-11-18T14:36:17.971Z,9.10
2022-11-18T14:39:25.420Z,9.00
2022-11-18T14:41:48.916Z,9.00
2022-11-18T14:44:17.144Z,8.90
2022-11-18T14:46:47.303Z,8.90
2022-11-18T14:49:18.604Z,8.80
2022-11-18T14:51:46.494Z,8.70
2022-11-18T14:54:17.209Z,8.70
2022-11-18T14:56:49.803Z,8.70
2022-11-18T14:59:19.798Z,8.60
2022-11-18T15:01:47.839Z,8.70
2022-11-18T15:04:17.784Z,8.70
2022-11-18T15:06:44.982Z,8.60
2022-11-18T15:09:12.603Z,8.60
2022-11-18T15:11:39.559Z,8.50
2022-11-18T15:14:07.287Z,8.40
2022-11-18T15:16:35.057Z,8.40
2022-11-18T15:19:04.061Z,8.30
2022-11-18T15:21:31.668Z,8.30
2022-11-18T15:23:58.626Z,8.30
2022-11-18T15:26:27.972Z,8.20
2022-11-18T15:28:56.614Z,8.20
2022-11-18T15:31:24.649Z,8.10
2022-11-18T15:33:52.412Z,8.10
2022-11-18T15:36:24.313Z,8.10
2022-11-18T15:38:53.374Z,8.10
2022-11-18T15:41:25.284Z,8.10
2022-11-18T15:43:53.533Z,8.10
2022-11-18T15:46:22.759Z,8.10
2022-11-18T15:48:54.161Z,8.00
2022-11-18T15:51:22.231Z,7.90
2022-11-18T15:53:49.628Z,7.90
2022-11-18T15:56:19.352Z,7.80
2022-11-18T15:58:56.774Z,7.80
2022-11-18T16:01:29.182Z,7.60
2022-11-18T16:03:56.530Z,7.60
2022-11-18T16:06:27.531Z,7.60
2022-11-18T16:08:59.935Z,7.50
2022-11-18T16:11:46.788Z,7.40
2022-11-18T16:14:17.387Z,7.30
2022-11-18T16:16:46.415Z,7.20
2022-11-18T16:19:15.827Z,7.20
2022-11-18T16:21:47.041Z,7.10
2022-11-18T16:24:25.744Z,7.10
2022-11-18T16:26:52.699Z,7.00
2022-11-18T16:29:20.736Z,6.90
2022-11-18T16:31:53.110Z,6.80
2022-11-18T16:34:29.251Z,6.70
2022-11-18T16:36:58.013Z,6.70
2022-11-18T16:39:27.153Z,6.70
2022-11-18T16:42:00.749Z,6.70
2022-11-18T16:44:33.652Z,6.70
2022-11-18T16:47:00.553Z,6.70
2022-11-18T16:49:28.173Z,6.70
2022-11-18T16:51:56.588Z,6.70
2022-11-18T16:54:29.990Z,6.60
2022-11-18T16:56:58.569Z,6.60
2022-11-18T16:59:30.197Z,6.70
2022-11-18T17:01:58.935Z,6.60
2022-11-18T17:04:27.776Z,6.60
2022-11-18T17:06:55.575Z,6.40
2022-11-18T17:09:24.512Z,6.40
2022-11-18T17:11:53.535Z,6.30
2022-11-18T17:14:21.849Z,6.30
2022-11-18T17:16:53.178Z,6.30
2022-11-18T17:19:22.671Z,6.20
2022-11-18T17:21:53.395Z,6.10
2022-11-18T17:24:22.716Z,6.20
2022-11-18T17:26:52.023Z,6.10
2022-11-18T17:29:19.383Z,6.00
2022-11-18T17:31:46.529Z,6.00
2022-11-18T17:34:14.836Z,5.90
2022-11-18T17:36:42.897Z,5.80
2022-11-18T17:39:11.921Z,5.90
2022-11-18T17:41:57.822Z,5.80
2022-11-18T17:44:25.380Z,5.80
2022-11-18T17:46:52.410Z,5.80
2022-11-18T17:49:21.371Z,5.80
2022-11-18T17:51:48.780Z,5.70
2022-11-18T17:54:16.268Z,5.70
2022-11-18T17:56:43.616Z,5.70
2022-11-18T17:59:10.856Z,5.70
2022-11-18T18:01:38.077Z,5.70
2022-11-18T18:04:05.302Z,5.70
2022-11-18T18:06:32.270Z,5.70
2022-11-18T18:08:59.696Z,5.80
2022-11-18T18:11:30.561Z,5.70
2022-11-18T18:14:12.609Z,5.70
2022-11-18T18:16:48.373Z,5.70
2022-11-18T18:19:20.999Z,5.90
2022-11-18T18:21:48.509Z,5.90
2022-11-18T18:24:17.556Z,5.80
2022-11-18T18:26:44.868Z,5.70
2022-11-18T18:29:12.485Z,5.60
2022-11-18T18:31:39.686Z,5.50
2022-11-18T18:34:06.805Z,5.40
2022-11-18T18:36:33.943Z,5.50
2022-11-18T18:39:02.233Z,5.40
2022-11-18T18:41:29.338Z,5.30
2022-11-18T18:43:56.681Z,5.30
2022-11-18T18:46:36.637Z,5.20
2022-11-18T18:49:15.873Z,5.20
2022-11-18T18:51:45.413Z,5.20
2022-11-18T18:54:15.342Z,5.20
2022-11-18T18:56:42.944Z,5.00
2022-11-18T18:59:10.115Z,5.00
2022-11-18T19:01:38.153Z,5.00
2022-11-18T19:04:06.839Z,4.90
2022-11-18T19:09:23.297Z,4.80
2022-11-18T19:12:09.945Z,4.70
2022-11-18T19:14:37.633Z,4.70
2022-11-18T19:17:10.148Z,4.60
2022-11-18T19:20:00.486Z,4.60
2022-11-18T19:22:30.620Z,4.50
2022-11-18T19:24:58.381Z,4.40
2022-11-18T19:27:25.919Z,4.40
2022-11-18T19:29:53.280Z,4.40
2022-11-18T19:32:20.190Z,4.40
2022-11-18T19:34:47.186Z,4.30
2022-11-18T19:37:14.133Z,4.30
2022-11-18T19:39:41.200Z,4.30
2022-11-18T19:42:10.600Z,4.30
2022-11-18T19:44:37.530Z,4.30
2022-11-18T19:47:04.484Z,4.20
2022-11-18T19:49:31.398Z,4.20
2022-11-18T19:51:58.189Z,4.20
2022-11-18T19:54:25.043Z,4.20
2022-11-18T19:56:51.921Z,4.20
2022-11-18T19:59:19.106Z,4.20
2022-11-18T20:01:46.135Z,4.20
2022-11-18T20:04:13.079Z,4.20
2022-11-18T20:06:40.465Z,4.20
2022-11-18T20:09:09.881Z,4.10
2022-11-18T20:11:38.476Z,4.10
2022-11-18T20:14:06.310Z,4.10
2022-11-18T20:16:33.669Z,4.10
2022-11-18T20:19:06.555Z,4.00
2022-11-18T20:21:36.288Z,4.00
2022-11-18T20:24:04.740Z,4.10
2022-11-18T20:26:37.461Z,4.00
2022-11-18T20:29:08.692Z,4.00
2022-11-18T20:31:36.872Z,4.00
2022-11-18T20:34:04.821Z,3.90
2022-11-18T20:36:34.411Z,4.00
2022-11-18T20:39:07.694Z,3.90
2022-11-18T20:41:36.285Z,3.90
2022-11-18T20:44:03.703Z,3.90
2022-11-18T20:46:30.758Z,3.90
2022-11-18T20:48:57.657Z,3.90
2022-11-18T20:51:27.124Z,3.90
2022-11-18T20:53:55.705Z,3.90
2022-11-18T20:56:24.615Z,3.90
2022-11-18T20:58:51.656Z,3.90
2022-11-18T21:01:24.928Z,3.80
2022-11-18T21:03:57.128Z,3.80
2022-11-18T21:06:27.200Z,3.80
2022-11-18T21:08:59.179Z,3.80
2022-11-18T21:11:26.675Z,3.70
2022-11-18T21:14:26.743Z,3.70
2022-11-18T21:17:00.620Z,3.70
2022-11-18T21:19:28.431Z,3.50
2022-11-18T21:21:56.494Z,3.50
2022-11-18T21:24:34.197Z,3.40
2022-11-18T21:27:03.442Z,3.40
2022-11-18T21:29:32.713Z,3.40
2022-11-18T21:32:03.100Z,3.30
2022-11-18T21:34:30.515Z,3.40
2022-11-18T21:36:58.107Z,3.30
2022-11-18T21:39:25.953Z,3.30
2022-11-18T21:41:56.771Z,3.20
2022-11-18T21:44:26.126Z,3.20
2022-11-18T21:46:53.042Z,3.20
2022-11-18T21:49:20.057Z,3.10
2022-11-18T21:51:47.125Z,3.10
2022-11-18T21:54:16.008Z,3.20
2022-11-18T21:56:43.179Z,3.00
2022-11-18T21:59:10.108Z,3.10
2022-11-18T22:01:37.067Z,3.00
2022-11-18T22:04:05.409Z,3.10
2022-11-18T22:06:34.158Z,3.00
2022-11-18T22:09:02.183Z,3.10
2022-11-18T22:11:29.176Z,3.00
2022-11-18T22:13:56.422Z,3.00
2022-11-18T22:16:24.646Z,2.90
2022-11-18T22:18:58.804Z,2.90
2022-11-18T22:21:27.211Z,3.00
2022-11-18T22:23:59.376Z,2.90
2022-11-18T22:26:26.320Z,2.90
2022-11-18T22:28:54.998Z,3.00
2022-11-18T22:31:23.437Z,2.90
2022-11-18T22:33:51.615Z,3.00
2022-11-18T22:36:20.654Z,2.90
2022-11-18T22:38:48.041Z,3.00
2022-11-18T22:41:44.228Z,3.00
2022-11-18T22:44:12.773Z,3.00
2022-11-18T22:46:41.356Z,3.00
2022-11-18T22:49:09.711Z,2.90
2022-11-18T22:51:38.348Z,2.90
2022-11-18T22:56:57.071Z,2.90
2022-11-18T22:59:24.923Z,2.90
2022-11-18T23:01:52.709Z,2.80
2022-11-18T23:04:19.627Z,2.80
2022-11-18T23:06:46.493Z,2.80
2022-11-18T23:09:13.742Z,2.80
2022-11-18T23:11:59.491Z,2.80
2022-11-18T23:14:26.462Z,2.80
2022-11-18T23:16:54.246Z,2.80
2022-11-18T23:19:21.603Z,2.80
2022-11-18T23:21:48.833Z,2.70
2022-11-18T23:24:17.857Z,2.70
2022-11-18T23:26:45.539Z,2.70
2022-11-18T23:29:14.148Z,2.70
2022-11-18T23:31:42.928Z,2.70
2022-11-18T23:34:12.431Z,2.60
2022-11-18T23:36:40.072Z,2.60
2022-11-18T23:39:07.320Z,2.50
2022-11-18T23:41:34.984Z,2.50
2022-11-18T23:44:02.103Z,2.50
2022-11-18T23:46:29.134Z,2.50
2022-11-18T23:48:56.053Z,2.50
2022-11-18T23:51:24.555Z,2.50
2022-11-18T23:53:56.381Z,2.50
2022-11-18T23:56:26.220Z,2.40
2022-11-18T23:58:55.416Z,2.40
